Time;durP1;ratioP1;P1;durP2;ratioP2;P2;SDS_P1;SDS_P2;PMS_P1;PMS_P2;Temp;Humidity;BMP_temperature;BMP_pressure;BME280_temperature;BME280_humidity;BME280_pressure;Samples;Min_cycle;Max_cycle;Signal;HPM_P1;HPM_P2
2021/09/21 00:00:15;;;;;;;6.08;3.25;;;;;;;6.17;78.36;100338.19;1740416;81;20863;-61
2021/09/21 00:02:43;;;;;;;6.17;3.47;;;;;;;6.15;78.44;100338.65;1705549;82;21017;-61
2021/09/21 00:05:10;;;;;;;6.33;3.27;;;;;;;6.11;78.44;100336.56;1736679;81;20855;-61
2021/09/21 00:07:37;;;;;;;6.72;3.40;;;;;;;6.09;78.54;100338.77;1737093;80;20964;-61
2021/09/21 00:10:05;;;;;;;7.00;3.80;;;;;;;6.07;78.63;100334.90;1738120;80;21845;-61
2021/09/21 00:12:32;;;;;;;7.53;3.52;;;;;;;6.08;78.62;100334.45;1744916;80;20904;-61
2021/09/21 00:14:59;;;;;;;6.05;3.52;;;;;;;6.05;78.67;100340.12;1745402;80;21472;-61
2021/09/21 00:17:25;;;;;;;5.55;3.00;;;;;;;6.03;78.66;100336.70;1738709;80;20952;-61
2021/09/21 00:19:52;;;;;;;3.90;3.42;;;;;;;6.00;78.69;100332.88;1737318;81;20926;-62
2021/09/21 00:22:18;;;;;;;4.42;3.83;;;;;;;6.02;78.84;100329.82;1731580;81;21127;-61
2021/09/21 00:24:45;;;;;;;3.20;2.90;;;;;;;6.07;78.85;100332.75;1736119;81;20883;-61
2021/09/21 00:27:11;;;;;;;5.53;3.27;;;;;;;6.08;78.93;100337.05;1735221;80;20933;-60
2021/09/21 00:29:38;;;;;;;5.35;3.52;;;;;;;6.12;78.96;100340.01;1698347;83;21506;-61
2021/09/21 00:32:13;;;;;;;6.53;3.90;;;;;;;6.10;78.93;100336.13;1732621;81;21275;-60
2021/09/21 00:34:42;;;;;;;8.75;4.35;;;;;;;6.12;79.05;100341.30;1725666;81;21029;-60
2021/09/21 00:37:14;;;;;;;6.08;4.08;;;;;;;6.11;79.02;100342.20;1738807;80;20910;-61
2021/09/21 00:39:42;;;;;;;7.97;4.55;;;;;;;6.11;79.03;100338.31;1728609;80;21478;-61
2021/09/21 00:42:10;;;;;;;4.85;3.85;;;;;;;6.09;79.09;100341.37;1738416;80;20969;-61
2021/09/21 00:44:38;;;;;;;10.03;4.90;;;;;;;6.08;79.17;100347.41;1730553;80;20930;-61
2021/09/21 00:47:09;;;;;;;8.40;4.60;;;;;;;6.09;79.27;100343.95;1731873;81;21321;-61
2021/09/21 00:49:37;;;;;;;8.50;4.28;;;;;;;6.07;79.07;100348.31;1734081;80;20933;-61
2021/09/21 00:52:04;;;;;;;5.75;3.40;;;;;;;5.98;79.14;100337.23;1743101;81;20937;-61
2021/09/21 00:54:31;;;;;;;6.65;3.72;;;;;;;6.02;79.38;100341.48;1737070;81;22047;-61
2021/09/21 00:56:58;;;;;;;4.60;3.10;;;;;;;6.08;79.44;100343.52;1726964;81;20942;-60
2021/09/21 00:59:25;;;;;;;5.03;4.15;;;;;;;6.14;79.52;100346.88;1737058;81;21028;-61
2021/09/21 01:01:51;;;;;;;5.63;4.37;;;;;;;6.18;79.48;100339.88;1726348;80;20875;-61
2021/09/21 01:04:18;;;;;;;10.38;3.80;;;;;;;6.18;79.47;100339.88;1731862;80;20878;-61
2021/09/21 01:06:45;;;;;;;8.00;3.90;;;;;;;6.19;79.53;100340.28;1735382;80;20867;-61
2021/09/21 01:09:20;;;;;;;9.40;4.90;;;;;;;6.18;79.50;100339.44;1739689;80;20949;-61
2021/09/21 01:11:49;;;;;;;5.03;3.27;;;;;;;6.16;79.46;100337.75;1725540;81;21468;-61
2021/09/21 01:14:16;;;;;;;5.75;4.10;;;;;;;6.16;79.64;100340.34;1728513;80;20963;-61
2021/09/21 01:16:43;;;;;;;6.05;4.75;;;;;;;6.14;79.53;100343.44;1729795;80;20981;-61
2021/09/21 01:19:15;;;;;;;9.20;4.57;;;;;;;5.99;79.33;100340.25;1729406;81;21440;-61
2021/09/21 01:21:47;;;;;;;8.00;3.67;;;;;;;5.88;79.45;100340.86;1731859;80;20940;-61
2021/09/21 01:24:16;;;;;;;6.12;3.62;;;;;;;5.85;79.80;100348.66;1730289;80;21871;-60
2021/09/21 01:26:43;;;;;;;9.13;4.50;;;;;;;5.89;79.90;100352.08;1732235;80;20926;-61
2021/09/21 01:29:10;;;;;;;5.53;3.40;;;;;;;5.91;79.94;100361.53;1723987;80;20890;-61
2021/09/21 01:31:39;;;;;;;4.20;3.75;;;;;;;5.96;80.06;100364.91;1733623;81;21417;-61
2021/09/21 01:36:44;;;;;;;4.67;3.67;;;;;;;6.15;80.22;100361.98;1676866;82;21030;-60
2021/09/21 01:39:10;;;;;;;5.65;3.30;;;;;;;6.24;80.10;100359.20;1665979;84;20981;-61
2021/09/21 01:41:37;;;;;;;3.65;2.90;;;;;;;6.31;80.10;100354.33;1691093;82;20909;-61
2021/09/21 01:44:04;;;;;;;5.80;3.30;;;;;;;6.40;80.18;100358.03;1690278;82;20942;-61
2021/09/21 01:46:31;;;;;;;5.08;3.00;;;;;;;6.48;80.27;100353.55;1677628;83;20947;-61
2021/09/21 01:48:57;;;;;;;4.92;2.70;;;;;;;6.58;80.50;100361.12;1665311;83;21533;-61
2021/09/21 01:51:33;;;;;;;10.20;3.42;;;;;;;6.64;80.24;100355.84;1669440;83;20864;-61
2021/09/21 01:59:26;;;;;;;5.08;2.45;;;;;;;6.86;80.27;100359.68;1689509;82;21194;-61
2021/09/21 02:01:52;;;;;;;;;;;;;;;6.94;80.14;100353.84;1730661;80;21464;-61
2021/09/21 02:04:20;;;;;;;3.55;2.30;;;;;;;7.00;80.13;100345.52;1733223;80;20120;-60
2021/09/21 02:06:48;;;;;;;3.22;2.22;;;;;;;7.04;80.01;100344.58;1727211;81;20874;-61
2021/09/21 02:09:15;;;;;;;2.02;1.67;;;;;;;7.10;80.01;100343.13;1700712;82;21611;-61
2021/09/21 02:11:43;;;;;;;6.03;2.20;;;;;;;7.14;79.93;100355.14;1731942;81;20974;-61
2021/09/21 02:14:13;;;;;;;3.30;2.17;;;;;;;7.15;79.87;100346.03;1733673;80;21035;-61
2021/09/21 02:16:40;;;;;;;3.45;2.02;;;;;;;7.18;79.83;100339.91;1737896;80;21008;-61
2021/09/21 02:19:07;;;;;;;3.75;2.50;;;;;;;7.20;79.83;100343.75;1730294;80;21440;-61
2021/09/21 02:21:34;;;;;;;6.47;2.53;;;;;;;7.20;79.79;100348.53;1732231;80;23414;-61
2021/09/21 02:24:02;;;;;;;4.00;1.80;;;;;;;7.21;79.75;100345.03;1734858;81;20957;-61
2021/09/21 02:26:29;;;;;;;3.37;1.87;;;;;;;7.21;79.71;100345.03;1732755;81;21203;-61
2021/09/21 02:28:56;;;;;;;2.90;1.87;;;;;;;7.23;79.73;100353.66;1740525;80;20960;-60
2021/09/21 02:31:23;;;;;;;4.95;2.08;;;;;;;7.22;79.69;100348.03;1737222;80;20940;-61
2021/09/21 02:33:49;;;;;;;2.77;1.85;;;;;;;7.21;79.62;100345.03;1733624;80;20982;-61
2021/09/21 02:36:16;;;;;;;6.42;2.40;;;;;;;7.20;79.60;100348.53;1740581;80;21421;-61
2021/09/21 02:38:43;;;;;;;4.08;2.52;;;;;;;7.17;79.54;100348.60;1734390;81;21047;-61
2021/09/21 02:41:10;;;;;;;3.30;2.40;;;;;;;7.12;79.54;100346.55;1732267;81;20906;-61
2021/09/21 02:43:36;;;;;;;3.25;1.95;;;;;;;7.07;79.54;100352.30;1739320;81;21133;-61
2021/09/21 02:46:03;;;;;;;2.57;2.07;;;;;;;6.99;79.47;100351.61;1731371;81;20949;-61
2021/09/21 02:48:31;;;;;;;2.20;1.70;;;;;;;6.91;79.55;100344.83;1735307;80;20910;-61
2021/09/21 02:51:01;;;;;;;3.42;2.15;;;;;;;6.86;79.50;100344.11;1730298;80;21804;-61
2021/09/21 02:53:28;;;;;;;3.80;2.17;;;;;;;6.81;79.51;100345.94;1732617;81;20950;-60
2021/09/21 02:55:55;;;;;;;2.17;1.77;;;;;;;6.77;79.53;100358.56;1733770;81;20958;-61
2021/09/21 02:58:22;;;;;;;3.17;2.00;;;;;;;6.74;79.51;100353.44;1740555;81;20914;-60
2021/09/21 03:00:52;;;;;;;3.27;2.02;;;;;;;6.67;79.49;100353.17;1740487;80;21433;-60
2021/09/21 03:03:17;;;;;;;2.62;1.95;;;;;;;6.61;79.53;100355.87;1729327;81;21037;-61
2021/09/21 03:05:52;;;;;;;3.50;2.05;;;;;;;6.62;79.66;100357.60;1740773;80;20936;-61
2021/09/21 03:08:16;;;;;;;3.22;1.75;;;;;;;6.63;79.78;100358.00;1738103;81;20942;-61
2021/09/21 03:18:49;;;;;;;7.10;2.10;;;;;;;6.75;79.90;100355.58;1744191;81;20954;-61
2021/09/21 03:21:16;;;;;;;5.08;2.33;;;;;;;6.77;79.90;100349.47;1740563;81;20902;-61
2021/09/21 03:23:43;;;;;;;4.92;2.25;;;;;;;6.81;79.98;100344.64;1736043;80;21612;-61
2021/09/21 03:26:09;;;;;;;8.35;2.00;;;;;;;6.83;79.95;100344.14;1739500;80;21857;-60
2021/09/21 03:28:36;;;;;;;8.55;2.12;;;;;;;6.85;79.99;100350.16;1740524;80;21037;-61
2021/09/21 03:31:02;;;;;;;3.22;1.80;;;;;;;6.87;80.06;100338.47;1744287;80;20962;-61
2021/09/21 03:33:29;;;;;;;3.08;1.92;;;;;;;6.87;80.03;100343.20;1737533;81;20987;-60
2021/09/21 03:35:56;;;;;;;4.30;1.87;;;;;;;6.87;79.97;100336.72;1741938;81;20966;-61
2021/09/21 03:38:22;;;;;;;3.37;2.10;;;;;;;6.87;79.99;100325.03;1742332;80;21501;-61
2021/09/21 03:40:49;;;;;;;6.25;2.27;;;;;;;6.87;80.03;100335.41;1737186;80;21090;-60
2021/09/21 03:43:15;;;;;;;6.00;2.65;;;;;;;6.86;80.01;100338.91;1740380;81;20908;-61
2021/09/21 03:45:42;;;;;;;15.63;3.15;;;;;;;6.84;79.87;100339.83;1738359;80;21520;-61
2021/09/21 03:48:09;;;;;;;12.07;2.70;;;;;;;6.78;79.88;100340.82;1738173;80;20962;-60
2021/09/21 03:50:36;;;;;;;27.00;3.85;;;;;;;6.72;79.86;100343.52;1740596;80;20962;-61
2021/09/21 03:53:04;;;;;;;26.93;4.35;;;;;;;6.65;79.85;100345.86;1743197;80;21025;-61
2021/09/21 03:55:31;;;;;;;28.02;4.17;;;;;;;6.57;79.84;100340.81;1735291;81;21021;-60
2021/09/21 03:57:58;;;;;;;12.03;3.17;;;;;;;6.46;79.82;100338.44;1739053;80;21517;-60
2021/09/21 04:00:24;;;;;;;11.18;3.60;;;;;;;6.39;79.80;100353.73;1743395;80;20919;-61
2021/09/21 04:02:51;;;;;;;8.90;3.92;;;;;;;6.26;79.83;100356.15;1741110;80;20911;-61
2021/09/21 04:05:18;;;;;;;11.38;3.12;;;;;;;6.21;80.04;100361.86;1737602;80;21051;-61
2021/09/21 04:07:49;;;;;;;28.30;3.67;;;;;;;6.21;80.24;100352.34;1735428;80;20930;-61
2021/09/21 04:10:14;;;;;;;14.50;3.92;;;;;;;6.24;80.28;100356.61;1730886;80;21478;-61
2021/09/21 04:12:40;;;;;;;13.62;4.65;;;;;;;6.23;80.26;100360.11;1709202;83;20930;-61
2021/09/21 04:15:08;;;;;;;14.20;4.60;;;;;;;6.18;80.20;100354.14;1700145;83;20970;-61
2021/09/21 04:17:35;;;;;;;19.87;4.95;;;;;;;6.16;80.27;100357.20;1705623;83;21108;-61
2021/09/21 04:20:01;;;;;;;30.77;5.15;;;;;;;6.17;80.38;100364.12;1710295;82;21454;-60
2021/09/21 04:22:28;;;;;;;13.05;4.90;;;;;;;6.15;80.37;100363.28;1701499;83;20943;-61
2021/09/21 04:24:55;;;;;;;20.72;4.87;;;;;;;6.14;80.41;100369.36;1706610;83;21561;-61
2021/09/21 04:27:22;;;;;;;22.07;5.05;;;;;;;6.11;80.37;100368.12;1701678;83;21395;-61
2021/09/21 04:29:55;;;;;;;14.38;4.17;;;;;;;6.11;80.46;100362.94;1705508;83;21869;-61
2021/09/21 04:32:20;;;;;;;10.08;4.25;;;;;;;6.14;80.58;100358.55;1703857;82;20874;-61
2021/09/21 04:34:48;;;;;;;26.12;4.50;;;;;;;6.17;80.66;100362.81;1701637;82;20903;-61
2021/09/21 04:37:15;;;;;;;17.48;5.50;;;;;;;6.22;80.71;100364.89;1701936;83;20921;-61
2021/09/21 04:39:41;;;;;;;11.43;4.75;;;;;;;6.23;80.77;100358.36;1709054;83;21457;-61
2021/09/21 04:42:12;;;;;;;9.90;4.43;;;;;;;6.26;80.76;100360.04;1707428;83;21054;-61
2021/09/21 04:44:39;;;;;;;5.33;3.85;;;;;;;6.28;80.75;100362.17;1701859;83;20955;-61
2021/09/21 04:47:05;;;;;;;10.50;3.95;;;;;;;6.29;80.80;100370.35;1700437;83;20950;-61
2021/09/21 04:49:32;;;;;;;12.70;3.67;;;;;;;6.34;80.85;100371.12;1705646;83;20895;-61
2021/09/21 04:51:59;;;;;;;23.37;4.43;;;;;;;6.37;80.82;100367.62;1658617;84;20976;-61
2021/09/21 04:54:26;;;;;;;18.65;4.80;;;;;;;6.46;81.02;100365.68;1664193;85;21816;-61
2021/09/21 04:56:53;;;;;;;20.55;4.90;;;;;;;6.71;81.16;100365.19;1703878;83;20896;-61
2021/09/21 04:59:19;;;;;;;104.05;8.78;;;;;;;6.95;81.31;100369.85;1666326;84;21053;-61
2021/09/21 05:01:46;;;;;;;30.23;6.60;;;;;;;7.44;81.29;100372.20;1658015;86;20969;-61
2021/09/21 05:04:12;;;;;;;11.43;3.58;;;;;;;8.10;81.22;100374.00;1655266;86;20966;-61
2021/09/21 05:06:39;;;;;;;22.48;4.20;;;;;;;8.87;81.11;100374.46;1706492;82;22165;-62
2021/09/21 05:09:12;;;;;;;10.70;4.15;;;;;;;9.69;80.89;100371.45;1705132;83;20906;-61
2021/09/21 05:11:34;;;;;;;11.35;4.20;;;;;;;10.26;79.94;100369.06;1728412;80;21465;-61
2021/09/21 05:14:00;;;;;;;11.03;4.62;;;;;;;10.61;79.13;100374.78;1728650;81;20943;-62
2021/09/21 05:16:27;;;;;;;13.55;4.83;;;;;;;10.76;78.96;100376.84;1724394;81;20875;-62
2021/09/21 05:18:54;;;;;;;13.48;4.80;;;;;;;10.68;78.56;100370.59;1737492;80;21935;-61
2021/09/21 05:21:21;;;;;;;13.05;4.85;;;;;;;10.72;79.03;100367.39;1737282;80;20898;-61
2021/09/21 05:23:57;;;;;;;18.30;4.60;;;;;;;10.65;78.77;100370.70;1731490;80;20937;-60
2021/09/21 05:26:24;;;;;;;29.15;6.45;;;;;;;10.84;79.26;100372.17;1735130;80;21465;-61
2021/09/21 05:28:50;;;;;;;9.43;4.20;;;;;;;11.18;79.52;100365.64;1738469;80;20950;-61
2021/09/21 05:31:17;;;;;;;27.60;5.43;;;;;;;11.61;79.76;100366.52;1737893;80;22037;-61
2021/09/21 05:33:44;;;;;;;19.62;4.60;;;;;;;12.29;79.86;100366.70;1733234;80;21445;-61
2021/09/21 05:36:11;;;;;;;22.23;4.70;;;;;;;12.93;79.77;100369.92;1741154;80;20927;-61
2021/09/21 05:38:37;;;;;;;22.03;5.50;;;;;;;13.60;79.84;100370.64;1724500;80;20927;-61
2021/09/21 05:41:04;;;;;;;20.15;5.78;;;;;;;14.29;79.08;100366.30;1739485;80;21589;-62
2021/09/21 05:43:31;;;;;;;21.05;5.12;;;;;;;14.57;78.43;100370.13;1731889;80;21136;-61
2021/09/21 05:45:57;;;;;;;21.27;5.00;;;;;;;14.25;77.56;100370.84;1729146;81;20910;-61
2021/09/21 05:48:24;;;;;;;18.65;4.67;;;;;;;13.65;76.97;100363.39;1739886;80;20946;-61
2021/09/21 05:50:51;;;;;;;21.47;4.30;;;;;;;13.20;77.49;100371.24;1742806;80;20931;-61
2021/09/21 05:53:17;;;;;;;19.30;4.83;;;;;;;12.96;77.90;100376.33;1734533;81;21640;-61
2021/09/21 05:55:45;;;;;;;15.50;4.03;;;;;;;12.67;77.78;100378.52;1738711;80;20986;-62
2021/09/21 05:58:12;;;;;;;27.58;4.20;;;;;;;12.29;77.41;100375.86;1732794;80;21976;-61
2021/09/21 06:00:39;;;;;;;10.90;4.12;;;;;;;11.89;77.47;100378.48;1735615;80;21480;-61
2021/09/21 06:03:06;;;;;;;10.38;3.75;;;;;;;11.64;77.82;100379.47;1739383;80;20949;-61
2021/09/21 06:05:34;;;;;;;25.83;4.93;;;;;;;11.46;77.70;100382.84;1736519;80;20937;-60
2021/09/21 06:08:03;;;;;;;16.57;3.55;;;;;;;11.23;77.66;100391.58;1737244;80;21210;-61
2021/09/21 06:10:31;;;;;;;19.80;5.05;;;;;;;11.08;77.70;100377.36;1727500;81;21522;-60
2021/09/21 06:12:57;;;;;;;17.30;4.50;;;;;;;11.03;77.79;100397.59;1696430;82;20949;-60
2021/09/21 06:15:25;;;;;;;19.37;4.67;;;;;;;11.02;77.84;100388.05;1695026;82;20974;-60
2021/09/21 06:17:54;;;;;;;13.48;4.20;;;;;;;11.04;77.75;100394.08;1692152;82;20955;-61
2021/09/21 06:20:21;;;;;;;17.17;4.00;;;;;;;10.96;77.49;100395.21;1699001;82;21297;-60
2021/09/21 06:22:49;;;;;;;11.63;3.70;;;;;;;10.91;77.60;100397.14;1695565;83;20990;-60
2021/09/21 06:25:20;;;;;;;12.03;3.22;;;;;;;10.94;77.80;100400.94;1698990;82;21127;-60
2021/09/21 06:27:49;;;;;;;20.43;4.35;;;;;;;10.81;77.35;100387.97;1700854;82;21500;-60
2021/09/21 06:30:17;;;;;;;9.75;3.25;;;;;;;10.74;77.50;100394.31;1699760;82;21460;-60
2021/09/21 06:32:44;;;;;;;4.97;3.52;;;;;;;10.70;77.46;100390.13;1694977;82;21037;-61
2021/09/21 06:35:11;;;;;;;25.37;4.53;;;;;;;10.77;77.65;100383.75;1646513;84;20973;-60
2021/09/21 06:37:39;;;;;;;18.95;3.40;;;;;;;10.91;77.67;100394.53;1696221;83;20848;-60
2021/09/21 06:40:08;;;;;;;24.82;4.12;;;;;;;11.62;78.51;100396.98;1696821;83;20875;-61
2021/09/21 06:42:41;;;;;;;52.45;5.62;;;;;;;12.50;78.44;100388.92;1698628;82;20927;-61
2021/09/21 06:45:11;;;;;;;21.02;3.37;;;;;;;13.36;77.88;100384.95;1695886;82;21975;-61
2021/09/21 06:47:43;;;;;;;22.73;3.83;;;;;;;13.79;76.87;100380.23;1700394;82;20939;-61
2021/09/21 06:50:11;;;;;;;32.08;5.17;;;;;;;14.03;76.61;100386.88;1699790;82;20982;-61
2021/09/21 06:52:38;;;;;;;38.58;4.50;;;;;;;14.45;77.15;100382.95;1691856;82;21437;-61
2021/09/21 06:55:11;;;;;;;29.63;4.80;;;;;;;14.95;76.74;100378.55;1675970;82;20958;-61
2021/09/21 06:57:41;;;;;;;50.85;4.53;;;;;;;15.26;76.62;100375.05;1694499;83;20951;-61
2021/09/21 07:00:10;;;;;;;11.10;2.83;;;;;;;15.48;76.34;100372.53;1698293;82;21512;-60
2021/09/21 07:02:42;;;;;;;80.70;10.35;;;;;;;15.36;75.41;100370.98;1700469;82;21476;-60
2021/09/21 07:05:09;;;;;;;40.08;7.75;;;;;;;15.26;75.92;100373.73;1697121;82;21489;-60
2021/09/21 07:07:35;;;;;;;;;;;;;;;15.09;75.07;100372.53;1696117;83;20902;-61
2021/09/21 07:10:02;;;;;;;26.10;5.67;;;;;;;14.76;74.53;100373.47;1702439;82;21206;-61
2021/09/21 07:12:30;;;;;;;41.18;7.37;;;;;;;14.57;74.79;100384.59;1703985;82;21871;-61
2021/09/21 07:15:46;;;;;;;91.30;13.50;;;;;;;14.37;75.06;100389.08;1705032;82;21409;-62
2021/09/21 07:18:19;;;;;;;19.25;4.78;;;;;;;14.20;74.65;100395.65;1704810;82;20899;-61
2021/09/21 07:20:46;;;;;;;17.48;3.47;;;;;;;13.90;74.11;100406.80;1703986;82;21474;-61
2021/09/21 07:23:15;;;;;;;14.43;3.25;;;;;;;13.65;74.31;100408.01;1699381;82;21052;-61
2021/09/21 07:25:42;;;;;;;11.85;2.85;;;;;;;13.18;72.88;100397.98;1703063;82;21379;-61
2021/09/21 07:28:09;;;;;;;9.05;1.85;;;;;;;12.94;73.97;100401.78;1704484;82;20896;-61
2021/09/21 07:30:36;;;;;;;5.70;1.83;;;;;;;12.68;72.58;100398.55;1721887;81;20917;-61
2021/09/21 07:33:04;;;;;;;4.55;1.70;;;;;;;12.46;73.21;100396.07;1719817;81;20921;-61
2021/09/21 07:35:42;;;;;;;13.90;2.40;;;;;;;12.29;73.37;100390.27;1725741;81;21053;-62
2021/09/21 07:38:12;;;;;;;5.75;2.17;;;;;;;12.16;73.58;100386.47;1721637;81;20906;-61
2021/09/21 07:40:40;;;;;;;10.95;1.57;;;;;;;12.21;73.88;100387.13;1718284;81;20990;-61
2021/09/21 07:43:08;;;;;;;6.08;1.92;;;;;;;12.25;73.56;100383.45;1713906;81;38011;-62
2021/09/21 07:45:36;;;;;;;3.60;1.82;;;;;;;12.22;73.64;100382.27;1721563;81;20923;-62
2021/09/21 07:48:04;;;;;;;5.80;1.95;;;;;;;12.05;72.85;100379.54;1679868;83;21093;-61
2021/09/21 07:50:31;;;;;;;4.12;1.52;;;;;;;11.98;73.56;100380.70;1659573;84;21473;-62
2021/09/21 07:52:58;;;;;;;4.22;2.05;;;;;;;12.17;74.02;100380.77;1716817;81;21473;-61
2021/09/21 07:55:25;;;;;;;5.53;1.40;;;;;;;12.43;74.11;100373.07;1717985;81;20978;-61
2021/09/21 07:57:51;;;;;;;1.67;1.20;;;;;;;12.74;74.35;100373.41;1715979;81;20985;-61
2021/09/21 08:00:20;;;;;;;2.15;1.52;;;;;;;13.00;73.94;100377.90;1714478;81;21031;-61
2021/09/21 08:02:47;;;;;;;3.75;1.45;;;;;;;12.91;71.77;100380.93;1716475;81;21002;-61
2021/09/21 08:05:14;;;;;;;4.28;1.60;;;;;;;12.70;70.62;100374.45;1718420;81;28676;-62
2021/09/21 08:07:41;;;;;;;6.72;1.62;;;;;;;12.63;72.03;100378.29;1714807;81;21519;-61
2021/09/21 08:10:16;;;;;;;;;;;;;;;12.82;72.85;100383.98;1718451;81;20895;-61
2021/09/21 08:12:46;;;;;;;3.12;1.30;;;;;;;13.10;72.55;100377.84;1703290;81;21999;-61
2021/09/21 08:15:13;;;;;;;2.98;1.22;;;;;;;13.28;72.74;100387.13;1701414;82;21015;-61
2021/09/21 08:17:40;;;;;;;5.17;1.37;;;;;;;13.32;71.84;100384.72;1700010;82;20912;-61
2021/09/21 08:20:08;;;;;;;3.62;1.20;;;;;;;13.35;72.01;100388.51;1702388;82;20980;-62
2021/09/21 08:22:36;;;;;;;3.10;1.37;;;;;;;13.60;72.20;100386.39;1702040;82;20879;-61
2021/09/21 08:25:06;;;;;;;2.98;1.37;;;;;;;13.76;71.88;100388.27;1698986;83;21181;-62
2021/09/21 08:27:36;;;;;;;1.82;1.27;;;;;;;13.80;71.90;100389.80;1676917;83;20946;-62
2021/09/21 08:30:06;;;;;;;2.85;1.35;;;;;;;13.78;70.73;100389.89;1697050;82;21568;-61
2021/09/21 08:32:33;;;;;;;4.12;1.10;;;;;;;13.60;70.28;100387.70;1698334;82;20908;-61
2021/09/21 08:35:00;;;;;;;1.95;1.20;;;;;;;13.45;68.97;100392.40;1702369;82;26909;-61
2021/09/21 08:37:27;;;;;;;4.35;1.27;;;;;;;12.97;66.71;100393.77;1698747;82;21140;-62
2021/09/21 08:39:53;;;;;;;2.27;1.40;;;;;;;12.77;68.60;100394.66;1696423;83;21508;-61
2021/09/21 08:42:22;;;;;;;13.68;3.92;;;;;;;12.97;69.71;100393.77;1703160;82;20963;-62
2021/09/21 08:44:50;;;;;;;6.55;1.55;;;;;;;13.06;70.21;100401.20;1698494;82;21482;-63
2021/09/21 08:47:21;;;;;;;3.75;1.22;;;;;;;13.25;69.21;100388.52;1699913;83;20949;-61
2021/09/21 08:49:50;;;;;;;3.67;1.22;;;;;;;13.39;69.57;100387.45;1697791;82;20931;-61
2021/09/21 08:52:16;;;;;;;2.37;1.00;;;;;;;13.57;65.90;100387.85;1690730;82;20888;-61
2021/09/21 08:54:43;;;;;;;2.77;1.17;;;;;;;13.36;66.11;100386.27;1698851;82;20923;-61
2021/09/21 08:57:13;;;;;;;2.12;1.10;;;;;;;13.06;65.54;100385.47;1698690;83;20875;-61
2021/09/21 08:59:39;;;;;;;3.30;1.02;;;;;;;12.86;64.93;100390.80;1700683;82;20931;-61
2021/09/21 09:02:10;;;;;;;1.77;1.10;;;;;;;12.76;66.46;100383.34;1700928;82;21929;-61
2021/09/21 09:04:39;;;;;;;17.35;4.28;;;;;;;12.73;67.12;100387.88;1701889;82;20911;-61
2021/09/21 09:07:08;;;;;;;3.02;1.67;;;;;;;12.82;67.81;100391.84;1678718;83;20949;-61
2021/09/21 09:09:37;;;;;;;6.40;2.52;;;;;;;12.90;67.05;100393.19;1702746;82;20952;-62
2021/09/21 09:12:07;;;;;;;3.10;1.42;;;;;;;12.94;66.89;100393.92;1697442;83;20966;-62
2021/09/21 09:14:38;;;;;;;7.47;1.40;;;;;;;12.92;66.60;100397.06;1684645;82;21158;-62
2021/09/21 09:17:09;;;;;;;5.85;1.20;;;;;;;12.88;67.19;100394.17;1682097;82;21536;-60
2021/09/21 09:19:43;;;;;;;2.25;1.20;;;;;;;12.98;66.99;100398.08;1686792;83;20912;-62
2021/09/21 09:22:16;;;;;;;3.55;1.20;;;;;;;13.00;66.43;100393.63;1695605;82;21587;-61
2021/09/21 09:24:56;;;;;;;121.00;19.05;;;;;;;13.15;66.08;100400.76;1687879;82;20966;-60
2021/09/21 09:27:47;;;;;;;309.32;48.85;;;;;;;13.36;67.67;100393.69;1684974;83;21100;-60
2021/09/21 09:30:19;;;;;;;4.10;1.85;;;;;;;13.68;68.08;100393.89;1695329;82;21465;-60
2021/09/21 09:32:55;;;;;;;42.43;7.67;;;;;;;13.82;66.34;100399.30;1677335;83;20971;-60
2021/09/21 09:35:28;;;;;;;23.22;5.17;;;;;;;13.91;66.75;100400.61;1680915;82;20946;-61
2021/09/21 09:38:01;;;;;;;18.45;4.42;;;;;;;14.21;67.34;100389.48;1692420;82;21140;-60
2021/09/21 09:40:34;;;;;;;10.50;2.45;;;;;;;14.45;67.15;100393.47;1691539;83;21706;-61
2021/09/21 09:42:58;;;;;;;36.23;7.30;;;;;;;14.48;65.27;100394.62;1687508;82;20939;-60
2021/09/21 09:45:36;;;;;;;2.67;1.85;;;;;;;14.50;65.92;100387.95;1683245;83;20942;-61
2021/09/21 09:48:05;;;;;;;84.77;13.80;;;;;;;14.42;64.45;100390.97;1691842;82;21039;-60
2021/09/21 09:50:35;;;;;;;34.13;5.28;;;;;;;14.52;66.29;100394.02;1693021;82;20953;-61
2021/09/21 09:53:16;;;;;;;3.12;1.42;;;;;;;14.65;66.04;100390.28;1689659;82;21035;-61
2021/09/21 09:55:46;;;;;;;27.42;6.33;;;;;;;14.42;64.25;100390.13;1690649;82;20943;-61
2021/09/21 09:58:13;;;;;;;23.05;4.90;;;;;;;14.38;65.12;100399.95;1684724;83;20923;-61
2021/09/21 10:00:42;;;;;;;18.65;4.58;;;;;;;14.35;65.71;100392.24;1653421;84;21513;-60
2021/09/21 10:03:08;;;;;;;21.57;4.70;;;;;;;14.38;64.82;100401.27;1695091;82;21490;-60
2021/09/21 10:05:39;;;;;;;4.87;2.00;;;;;;;14.29;65.03;100400.45;1686707;83;21057;-60
2021/09/21 10:08:07;;;;;;;76.28;11.53;;;;;;;14.18;64.19;100400.15;1690314;81;20949;-60
2021/09/21 10:10:36;;;;;;;7.42;2.27;;;;;;;14.18;65.17;100402.31;1687553;83;21432;-60
2021/09/21 10:13:08;;;;;;;16.05;3.17;;;;;;;14.12;64.20;100408.35;1709092;81;20884;-60
2021/09/21 10:15:37;;;;;;;5.58;1.62;;;;;;;14.26;65.04;100410.64;1740245;80;20890;-60
2021/09/21 10:18:04;;;;;;;15.85;1.90;;;;;;;14.30;62.89;100407.39;1724535;80;21229;-60
2021/09/21 10:20:35;;;;;;;57.58;9.65;;;;;;;13.97;63.67;100408.17;1727543;80;20882;-60
2021/09/21 10:23:09;;;;;;;95.87;18.07;;;;;;;13.99;64.54;100419.45;1738134;80;20915;-60
2021/09/21 10:25:40;;;;;;;68.57;11.73;;;;;;;14.00;64.65;100414.61;1733219;80;20943;-60
2021/09/21 10:28:20;;;;;;;125.62;21.77;;;;;;;14.00;64.88;100413.73;1738275;80;20867;-60
2021/09/21 10:30:57;;;;;;;22.75;3.17;;;;;;;14.02;64.79;100417.98;1733710;80;21026;-60
2021/09/21 10:33:32;;;;;;;8.40;1.77;;;;;;;14.01;64.00;100414.98;1706377;80;20926;-61
2021/09/21 10:35:56;;;;;;;22.50;3.02;;;;;;;13.77;63.88;100410.95;1729306;80;20928;-59
2021/09/21 10:38:23;;;;;;;4.33;1.80;;;;;;;13.74;64.30;100409.33;1740176;79;20987;-60
2021/09/21 10:40:55;;;;;;;19.10;2.00;;;;;;;13.40;63.38;100374.72;1742404;80;20920;-61
2021/09/21 10:43:29;;;;;;;2.15;1.47;;;;;;;13.45;64.26;100418.62;1738307;80;21484;-60
2021/09/21 10:46:14;;;;;;;4.65;1.67;;;;;;;13.47;64.04;100411.98;1724876;80;20960;-60
2021/09/21 10:48:44;;;;;;;6.58;1.40;;;;;;;13.33;63.61;100413.52;1731799;80;20939;-60
2021/09/21 10:51:13;;;;;;;3.87;1.47;;;;;;;13.14;62.58;100412.18;1733472;80;20927;-60
2021/09/21 10:53:56;;;;;;;3.35;1.22;;;;;;;13.13;62.79;100420.95;1730946;81;20942;-60
2021/09/21 10:56:33;;;;;;;6.78;1.52;;;;;;;13.17;63.52;100412.03;1731238;80;21099;-60
2021/09/21 10:59:26;;;;;;;3.08;1.27;;;;;;;13.13;62.89;100422.26;1728972;81;21506;-60
2021/09/21 11:02:03;;;;;;;5.15;1.40;;;;;;;13.05;62.70;100423.11;1733988;80;20921;-60
2021/09/21 11:04:46;;;;;;;2.90;1.20;;;;;;;13.06;63.11;100429.20;1736733;80;20917;-60
2021/09/21 11:07:31;;;;;;;1.45;1.05;;;;;;;12.96;62.71;100426.13;1738319;80;20883;-60
2021/09/21 11:10:02;;;;;;;1.60;0.95;;;;;;;12.83;62.00;100421.08;1734487;80;20867;-60
2021/09/21 11:12:29;;;;;;;8.98;1.40;;;;;;;12.74;62.56;100432.37;1728185;82;20938;-59
2021/09/21 11:14:59;;;;;;;2.77;1.40;;;;;;;12.75;63.15;100435.37;1717492;81;21453;-60
2021/09/21 11:17:26;;;;;;;1.92;1.10;;;;;;;12.76;62.67;100435.75;1718195;81;20985;-60
2021/09/21 11:19:56;;;;;;;1.90;1.10;;;;;;;12.73;61.79;100435.89;1712751;81;20953;-60
2021/09/21 11:22:29;;;;;;;6.15;1.05;;;;;;;12.55;61.05;100439.34;1717028;81;21168;-60
2021/09/21 11:25:09;;;;;;;7.85;2.22;;;;;;;12.56;61.70;100438.41;1717946;81;20996;-59
2021/09/21 11:27:39;;;;;;;6.50;1.20;;;;;;;12.52;61.45;100440.32;1717003;81;21457;-59
2021/09/21 11:30:12;;;;;;;4.55;1.00;;;;;;;12.44;61.04;100435.88;1716974;81;20916;-60
2021/09/21 11:32:43;;;;;;;1.85;1.10;;;;;;;12.44;61.04;100435.88;1723766;81;20946;-61
2021/09/21 11:35:14;;;;;;;5.58;1.30;;;;;;;12.46;60.80;100432.73;1721462;81;21896;-60
2021/09/21 11:37:45;;;;;;;10.80;2.58;;;;;;;12.38;61.00;100432.66;1716953;81;20947;-60
2021/09/21 11:40:28;;;;;;;3.58;1.40;;;;;;;12.35;60.76;100436.72;1718628;81;20914;-60
2021/09/21 11:42:56;;;;;;;4.47;1.25;;;;;;;12.33;60.84;100437.27;1711091;81;20963;-60
2021/09/21 11:45:26;;;;;;;3.33;1.07;;;;;;;12.29;61.27;100433.47;1718391;81;20906;-60
2021/09/21 11:47:53;;;;;;;7.78;1.50;;;;;;;12.24;61.37;100438.05;1717285;81;21645;-60
2021/09/21 11:50:26;;;;;;;4.17;1.25;;;;;;;12.24;61.51;100427.58;1715680;81;20903;-60